ADDS TAF Board (Experimental) INFO Settings
IDs: Format: Expanded Condensed

KCLE - Cleveland/Hopkins In, OH, US

Issued at 0906 UTC 03 May 2016
Updated at: 1043 UTC 03 May 2016
Time0951Z 03/11Z 03/12Z 03/13Z 03/14Z 03/15Z 03/16Z 03/17Z 03/18Z 03/19Z 03/20Z 03/21Z 03/22Z 03/23Z
Type OBS PRVL PRVL PRVL PRVL PRVL PRVL PRVL PRVL PRVL PRVL PRVL PRVL PRVL
VIS 7 >6 >6 >6 >6 >6 >6 >6 >6 >6 >6 >6 >6 >6
CIG -- 60 60 60 60 60 60 60 60 60 60 60 60 60
Cover SCT BKN BKN BKN BKN BKN BKN BKN BKN BKN BKN BKN BKN BKN
FltCat VFR VFR VFR VFR VFR VFR VFR VFR VFR VFR VFR VFR VFR VFR
WX -- -- -- -- -- -- -- -- -- -- -- -- -- --
WDir 330 350 350 350 350 350 350 350 350 350 350 350 350 350
WSpd 3 6 6 6 6 6 6 6 6 6 6 6 6 6
WGst -- -- -- -- -- -- -- -- -- -- -- -- -- --
R06/24
XWnd 3 5 5 5 5 5 5 5 5 5 5 5 5 5
HWnd 1 3 3 3 3 3 3 3 3 3 3 3 3 3
R10/28
XWnd 3 6 6 6 6 6 6 6 6 6 6 6 6 6
HWnd -2 -1 -1 -1 -1 -1 -1 -1 -1 -1 -1 -1 -1 -1

NOTE: TEMPO conditions in [brackets]. Keep in mind TEMPO conditions might be better (lower impact) than prevailing conditions.

Raw TAF
KCLE 030906Z 0309/0412 35006KT P6SM BKN060
  FM040000 VRB04KT P6SM BKN250


Raw METAR
KCLE 030951Z 33003KT 7SM SCT060 SCT120 07/06 A2994 RMK AO2 SLP141 T00720056
KCLE 030851Z 36005KT 6SM BR OVC060 08/07 A2994 RMK AO2 SLP141 T00780067 58013
KCLE 030751Z 02004KT 7SM OVC060 08/07 A2995 RMK AO2 SLP144 T00780067

METAR Board
Radar Display
Forecast Discussion

TAF Board Legend

Potential Impact
Threat None Slight Moderate High
Visibility (sm) ≥5.1 5.1>X≥3 3>X≥1 <1
Ceiling (100 ft) ≥30.1 30.1>X≥10 10>X≥5 <5
Wind Speed (kt) <10 10≤X<20 20≤X<30 ≥30
Wind Gust (kt) <15 15≤X<25 25≤X<35 ≥35
Weather No Wx Reported VCTS,-TS,-FZRA,SN TS,FZRA +TS,+FZRA,+SN